Adner, Louisiana
Current Conditions -  °F | °C
As of 3:58 AM on Saturday 25 Oct 2014 (Local Time) from KBAD Reporting Station
Clear Clear  
Wind Chill: 11°   Ceiling: Unl
Heat Index: 11°   Visibility: 10mi
Dew Point: 10°   Wind: 2mph
Humidity: 97%   Direction: 150°SSE
Pressure: 30.12"   Gusts: NA
Location:  32.5391°N, 93.5257°W
Report Text: KBAD 250858Z AUTO 15002KT 10SM CLR 11/10 A3012 RMK AO2 SLP202 T01090104 58002
Loading
Personal Weather Stations






























Interactive Weather Map
Tropical Storm Tracking
New forecast layout! Learn more

10-Day Weather Forecast

Advertisements
Track Severe Weather on mobile